sensor_id;sensor_type;location;lat;lon;timestamp;pressure;altitude;pressure_sealevel;temperature;humidity
22872;BME280;11603;44.910;8.630;2023-03-25T00:00:30;100254.59;;;14.77;100.00
22872;BME280;11603;44.910;8.630;2023-03-25T00:10:03;100257.25;;;14.89;100.00
22872;BME280;11603;44.910;8.630;2023-03-25T00:12:41;100258.63;;;14.83;100.00
22872;BME280;11603;44.910;8.630;2023-03-25T00:15:13;100255.06;;;14.82;100.00
22872;BME280;11603;44.910;8.630;2023-03-25T00:18:21;100253.34;;;14.81;100.00
22872;BME280;11603;44.910;8.630;2023-03-25T00:21:18;100252.13;;;14.86;100.00
22872;BME280;11603;44.910;8.630;2023-03-25T00:23:52;100249.56;;;14.84;100.00
22872;BME280;11603;44.910;8.630;2023-03-25T00:26:18;100251.78;;;14.79;100.00
22872;BME280;11603;44.910;8.630;2023-03-25T00:28:44;100250.34;;;14.75;100.00
22872;BME280;11603;44.910;8.630;2023-03-25T00:31:13;100259.91;;;14.68;100.00
22872;BME280;11603;44.910;8.630;2023-03-25T00:33:39;100253.09;;;14.64;100.00
22872;BME280;11603;44.910;8.630;2023-03-25T00:36:09;100248.69;;;14.63;100.00
22872;BME280;11603;44.910;8.630;2023-03-25T00:38:37;100247.81;;;14.62;100.00
22872;BME280;11603;44.910;8.630;2023-03-25T00:43:39;100252.88;;;14.56;100.00
22872;BME280;11603;44.910;8.630;2023-03-25T00:46:08;100253.13;;;14.53;100.00
22872;BME280;11603;44.910;8.630;2023-03-25T00:48:37;100247.75;;;14.53;100.00
22872;BME280;11603;44.910;8.630;2023-03-25T00:51:09;100245.44;;;14.48;100.00
22872;BME280;11603;44.910;8.630;2023-03-25T00:53:40;100250.75;;;14.38;100.00
22872;BME280;11603;44.910;8.630;2023-03-25T00:56:11;100236.28;;;14.39;100.00
22872;BME280;11603;44.910;8.630;2023-03-25T00:58:39;100249.75;;;14.39;100.00
22872;BME280;11603;44.910;8.630;2023-03-25T01:01:13;100247.06;;;14.39;100.00
22872;BME280;11603;44.910;8.630;2023-03-25T01:03:40;100249.38;;;14.33;100.00
22872;BME280;11603;44.910;8.630;2023-03-25T01:06:17;100237.41;;;14.37;100.00
22872;BME280;11603;44.910;8.630;2023-03-25T01:08:45;100240.09;;;14.37;100.00
22872;BME280;11603;44.910;8.630;2023-03-25T01:11:23;100229.34;;;14.37;100.00
22872;BME280;11603;44.910;8.630;2023-03-25T01:13:49;100225.56;;;14.28;100.00
22872;BME280;11603;44.910;8.630;2023-03-25T01:16:16;100225.56;;;14.28;100.00
22872;BME280;11603;44.910;8.630;2023-03-25T01:18:42;100221.75;;;14.31;100.00
22872;BME280;11603;44.910;8.630;2023-03-25T01:21:07;100216.50;;;14.29;100.00
22872;BME280;11603;44.910;8.630;2023-03-25T01:23:33;100219.44;;;14.26;100.00
22872;BME280;11603;44.910;8.630;2023-03-25T01:25:59;100210.63;;;14.24;100.00
22872;BME280;11603;44.910;8.630;2023-03-25T01:28:25;100212.63;;;14.22;100.00
22872;BME280;11603;44.910;8.630;2023-03-25T01:30:59;100210.41;;;14.27;100.00
22872;BME280;11603;44.910;8.630;2023-03-25T01:33:25;100199.47;;;14.29;100.00
22872;BME280;11603;44.910;8.630;2023-03-25T01:35:51;100196.94;;;14.27;100.00
22872;BME280;11603;44.910;8.630;2023-03-25T01:38:17;100193.28;;;14.28;100.00
22872;BME280;11603;44.910;8.630;2023-03-25T01:40:45;100198.03;;;14.25;100.00
22872;BME280;11603;44.910;8.630;2023-03-25T01:43:11;100201.72;;;14.24;100.00
22872;BME280;11603;44.910;8.630;2023-03-25T01:45:37;100191.09;;;14.22;100.00
22872;BME280;11603;44.910;8.630;2023-03-25T01:50:35;100195.75;;;14.20;100.00
22872;BME280;11603;44.910;8.630;2023-03-25T01:53:04;100192.06;;;14.21;100.00
22872;BME280;11603;44.910;8.630;2023-03-25T01:55:33;100188.03;;;14.27;100.00
22872;BME280;11603;44.910;8.630;2023-03-25T01:58:04;100190.25;;;14.22;100.00
22872;BME280;11603;44.910;8.630;2023-03-25T02:00:32;100187.75;;;14.30;100.00
22872;BME280;11603;44.910;8.630;2023-03-25T02:03:00;100177.84;;;14.30;100.00
22872;BME280;11603;44.910;8.630;2023-03-25T02:05:46;100181.28;;;14.32;100.00
22872;BME280;11603;44.910;8.630;2023-03-25T02:08:13;100179.28;;;14.34;100.00
22872;BME280;11603;44.910;8.630;2023-03-25T02:10:41;100180.91;;;14.37;100.00
22872;BME280;11603;44.910;8.630;2023-03-25T02:13:09;100177.44;;;14.35;100.00
22872;BME280;11603;44.910;8.630;2023-03-25T02:15:50;100190.44;;;14.30;100.00
22872;BME280;11603;44.910;8.630;2023-03-25T02:30:27;100184.78;;;14.12;100.00
22872;BME280;11603;44.910;8.630;2023-03-25T02:36:09;100189.41;;;14.10;100.00
22872;BME280;11603;44.910;8.630;2023-03-25T02:38:43;100200.66;;;14.15;100.00
22872;BME280;11603;44.910;8.630;2023-03-25T02:46:27;100206.38;;;14.22;100.00
22872;BME280;11603;44.910;8.630;2023-03-25T02:51:30;100207.97;;;14.13;100.00
22872;BME280;11603;44.910;8.630;2023-03-25T02:54:05;100208.25;;;14.10;100.00
22872;BME280;11603;44.910;8.630;2023-03-25T02:56:33;100202.28;;;14.07;100.00
22872;BME280;11603;44.910;8.630;2023-03-25T02:59:03;100203.75;;;13.99;100.00
22872;BME280;11603;44.910;8.630;2023-03-25T03:01:29;100210.91;;;13.67;100.00
22872;BME280;11603;44.910;8.630;2023-03-25T03:03:59;100204.69;;;13.55;100.00
22872;BME280;11603;44.910;8.630;2023-03-25T03:06:26;100203.84;;;13.44;100.00
22872;BME280;11603;44.910;8.630;2023-03-25T03:09:00;100208.75;;;13.39;100.00
22872;BME280;11603;44.910;8.630;2023-03-25T03:11:42;100199.34;;;13.22;100.00
22872;BME280;11603;44.910;8.630;2023-03-25T03:16:57;100209.81;;;13.14;100.00
22872;BME280;11603;44.910;8.630;2023-03-25T03:20:16;100215.88;;;13.05;100.00
22872;BME280;11603;44.910;8.630;2023-03-25T03:23:03;100218.94;;;13.00;100.00
22872;BME280;11603;44.910;8.630;2023-03-25T03:25:35;100229.06;;;12.97;100.00
22872;BME280;11603;44.910;8.630;2023-03-25T03:28:09;100230.03;;;12.96;100.00
22872;BME280;11603;44.910;8.630;2023-03-25T03:30:48;100241.72;;;12.95;100.00
22872;BME280;11603;44.910;8.630;2023-03-25T03:33:26;100235.50;;;12.94;100.00
22872;BME280;11603;44.910;8.630;2023-03-25T03:36:26;100234.28;;;12.98;100.00
22872;BME280;11603;44.910;8.630;2023-03-25T03:39:02;100235.91;;;13.01;100.00
22872;BME280;11603;44.910;8.630;2023-03-25T03:41:33;100228.31;;;12.95;100.00
22872;BME280;11603;44.910;8.630;2023-03-25T03:44:03;100226.34;;;12.86;100.00
22872;BME280;11603;44.910;8.630;2023-03-25T03:46:40;100226.25;;;12.87;100.00
22872;BME280;11603;44.910;8.630;2023-03-25T03:49:13;100233.56;;;12.96;100.00
22872;BME280;11603;44.910;8.630;2023-03-25T03:51:58;100224.41;;;12.99;100.00
22872;BME280;11603;44.910;8.630;2023-03-25T03:54:29;100223.41;;;12.89;100.00
22872;BME280;11603;44.910;8.630;2023-03-25T03:57:00;100230.38;;;12.91;100.00
22872;BME280;11603;44.910;8.630;2023-03-25T03:59:44;100231.59;;;12.87;100.00
22872;BME280;11603;44.910;8.630;2023-03-25T04:04:51;100231.47;;;12.89;100.00
22872;BME280;11603;44.910;8.630;2023-03-25T04:07:21;100232.56;;;12.86;100.00
22872;BME280;11603;44.910;8.630;2023-03-25T04:10:02;100239.88;;;12.84;100.00
22872;BME280;11603;44.910;8.630;2023-03-25T04:12:36;100237.31;;;12.83;100.00
22872;BME280;11603;44.910;8.630;2023-03-25T04:15:07;100228.91;;;12.87;100.00
22872;BME280;11603;44.910;8.630;2023-03-25T04:17:33;100229.53;;;12.91;100.00
22872;BME280;11603;44.910;8.630;2023-03-25T04:19:59;100228.66;;;12.90;100.00
22872;BME280;11603;44.910;8.630;2023-03-25T04:22:25;100224.66;;;12.96;100.00
22872;BME280;11603;44.910;8.630;2023-03-25T04:24:51;100230.88;;;12.96;100.00
22872;BME280;11603;44.910;8.630;2023-03-25T04:27:20;100222.94;;;12.95;100.00
22872;BME280;11603;44.910;8.630;2023-03-25T04:29:49;100235.75;;;12.91;100.00
22872;BME280;11603;44.910;8.630;2023-03-25T04:32:17;100238.16;;;12.83;100.00
22872;BME280;11603;44.910;8.630;2023-03-25T04:34:42;100235.94;;;12.77;100.00
22872;BME280;11603;44.910;8.630;2023-03-25T04:37:08;100248.75;;;12.73;100.00
22872;BME280;11603;44.910;8.630;2023-03-25T04:39:33;100255.09;;;12.72;100.00
22872;BME280;11603;44.910;8.630;2023-03-25T04:41:59;100254.72;;;12.77;100.00
22872;BME280;11603;44.910;8.630;2023-03-25T04:44:31;100254.13;;;12.73;100.00
22872;BME280;11603;44.910;8.630;2023-03-25T04:47:05;100252.91;;;12.66;100.00
22872;BME280;11603;44.910;8.630;2023-03-25T04:49:31;100249.06;;;12.58;100.00
22872;BME280;11603;44.910;8.630;2023-03-25T04:51:57;100245.97;;;12.51;100.00
22872;BME280;11603;44.910;8.630;2023-03-25T04:54:23;100247.69;;;12.52;100.00
22872;BME280;11603;44.910;8.630;2023-03-25T04:56:50;100247.69;;;12.52;100.00
22872;BME280;11603;44.910;8.630;2023-03-25T04:59:17;100243.31;;;12.51;100.00
22872;BME280;11603;44.910;8.630;2023-03-25T05:01:44;100241.22;;;12.44;100.00
22872;BME280;11603;44.910;8.630;2023-03-25T05:04:12;100242.13;;;12.31;100.00
22872;BME280;11603;44.910;8.630;2023-03-25T05:06:41;100244.75;;;12.20;100.00
22872;BME280;11603;44.910;8.630;2023-03-25T05:09:10;100233.84;;;12.11;100.00
22872;BME280;11603;44.910;8.630;2023-03-25T05:11:37;100239.03;;;12.01;100.00
22872;BME280;11603;44.910;8.630;2023-03-25T05:14:08;100236.63;;;12.09;100.00
22872;BME280;11603;44.910;8.630;2023-03-25T05:16:34;100241.72;;;12.01;100.00
22872;BME280;11603;44.910;8.630;2023-03-25T05:19:00;100240.34;;;11.96;100.00
22872;BME280;11603;44.910;8.630;2023-03-25T05:21:28;100243.56;;;11.88;100.00
22872;BME280;11603;44.910;8.630;2023-03-25T05:23:54;100256.34;;;11.84;100.00
22872;BME280;11603;44.910;8.630;2023-03-25T05:27:16;100261.75;;;11.59;100.00
22872;BME280;11603;44.910;8.630;2023-03-25T05:40:56;100262.22;;;11.40;100.00
22872;BME280;11603;44.910;8.630;2023-03-25T05:55:17;100260.34;;;11.54;100.00
22872;BME280;11603;44.910;8.630;2023-03-25T05:58:08;100270.00;;;11.56;100.00
22872;BME280;11603;44.910;8.630;2023-03-25T06:01:00;100272.13;;;11.64;100.00
22872;BME280;11603;44.910;8.630;2023-03-25T06:03:33;100283.25;;;11.70;100.00
22872;BME280;11603;44.910;8.630;2023-03-25T06:06:17;100287.47;;;11.74;100.00
22872;BME280;11603;44.910;8.630;2023-03-25T06:09:38;100295.50;;;11.87;100.00
22872;BME280;11603;44.910;8.630;2023-03-25T06:12:25;100287.56;;;11.85;100.00
22872;BME280;11603;44.910;8.630;2023-03-25T06:16:14;100280.56;;;11.83;100.00
22872;BME280;11603;44.910;8.630;2023-03-25T06:19:33;100290.00;;;11.88;100.00
22872;BME280;11603;44.910;8.630;2023-03-25T06:23:03;100294.56;;;11.99;100.00
22872;BME280;11603;44.910;8.630;2023-03-25T06:26:22;100296.38;;;12.11;100.00
22872;BME280;11603;44.910;8.630;2023-03-25T06:29:09;100287.09;;;12.28;100.00
22872;BME280;11603;44.910;8.630;2023-03-25T06:32:37;100295.38;;;12.49;100.00
22872;BME280;11603;44.910;8.630;2023-03-25T06:36:05;100305.59;;;12.44;100.00
22872;BME280;11603;44.910;8.630;2023-03-25T06:38:40;100290.91;;;12.37;100.00
22872;BME280;11603;44.910;8.630;2023-03-25T06:45:36;100277.16;;;12.41;100.00
22872;BME280;11603;44.910;8.630;2023-03-25T06:54:08;100298.50;;;12.19;100.00
22872;BME280;11603;44.910;8.630;2023-03-25T06:56:50;100290.72;;;12.40;100.00
22872;BME280;11603;44.910;8.630;2023-03-25T07:06:33;100314.88;;;12.74;100.00
22872;BME280;11603;44.910;8.630;2023-03-25T07:09:35;100311.03;;;12.90;100.00
22872;BME280;11603;44.910;8.630;2023-03-25T07:12:14;100309.47;;;12.87;100.00
22872;BME280;11603;44.910;8.630;2023-03-25T07:14:54;100319.53;;;12.84;100.00
22872;BME280;11603;44.910;8.630;2023-03-25T07:17:44;100323.94;;;12.85;100.00
22872;BME280;11603;44.910;8.630;2023-03-25T07:20:13;100330.22;;;12.96;100.00
22872;BME280;11603;44.910;8.630;2023-03-25T07:22:39;100326.31;;;13.00;100.00
22872;BME280;11603;44.910;8.630;2023-03-25T07:25:08;100326.81;;;13.05;100.00
22872;BME280;11603;44.910;8.630;2023-03-25T07:27:33;100332.44;;;13.02;100.00
22872;BME280;11603;44.910;8.630;2023-03-25T07:30:06;100332.69;;;13.10;100.00
22872;BME280;11603;44.910;8.630;2023-03-25T07:32:31;100336.19;;;13.00;100.00
22872;BME280;11603;44.910;8.630;2023-03-25T07:34:57;100331.53;;;12.91;100.00
22872;BME280;11603;44.910;8.630;2023-03-25T07:37:22;100330.88;;;13.11;100.00
22872;BME280;11603;44.910;8.630;2023-03-25T07:39:48;100329.94;;;13.12;100.00
22872;BME280;11603;44.910;8.630;2023-03-25T07:42:13;100328.38;;;13.21;100.00
22872;BME280;11603;44.910;8.630;2023-03-25T07:44:59;100329.84;;;13.25;100.00
22872;BME280;11603;44.910;8.630;2023-03-25T07:47:25;100335.13;;;13.37;100.00
22872;BME280;11603;44.910;8.630;2023-03-25T07:49:50;100327.94;;;13.49;100.00
22872;BME280;11603;44.910;8.630;2023-03-25T07:52:16;100334.66;;;13.54;100.00
22872;BME280;11603;44.910;8.630;2023-03-25T07:54:41;100336.38;;;13.67;100.00
22872;BME280;11603;44.910;8.630;2023-03-25T07:57:07;100340.19;;;13.75;100.00
22872;BME280;11603;44.910;8.630;2023-03-25T07:59:32;100350.91;;;13.97;100.00
22872;BME280;11603;44.910;8.630;2023-03-25T08:01:58;100343.69;;;14.09;100.00
22872;BME280;11603;44.910;8.630;2023-03-25T08:04:23;100339.94;;;14.12;100.00
22872;BME280;11603;44.910;8.630;2023-03-25T08:06:49;100339.28;;;14.19;100.00
22872;BME280;11603;44.910;8.630;2023-03-25T08:09:15;100333.50;;;14.35;100.00
22872;BME280;11603;44.910;8.630;2023-03-25T08:11:40;100346.38;;;14.54;100.00
22872;BME280;11603;44.910;8.630;2023-03-25T08:14:06;100340.75;;;14.46;100.00
22872;BME280;11603;44.910;8.630;2023-03-25T08:16:32;100347.19;;;14.65;100.00
22872;BME280;11603;44.910;8.630;2023-03-25T08:18:57;100349.59;;;14.79;100.00
22872;BME280;11603;44.910;8.630;2023-03-25T08:21:23;100348.88;;;14.98;100.00
22872;BME280;11603;44.910;8.630;2023-03-25T08:23:55;100333.88;;;15.16;100.00
22872;BME280;11603;44.910;8.630;2023-03-25T08:26:30;100330.84;;;15.31;100.00
22872;BME280;11603;44.910;8.630;2023-03-25T08:28:58;100341.16;;;15.46;100.00
22872;BME280;11603;44.910;8.630;2023-03-25T08:31:25;100342.81;;;15.58;100.00
22872;BME280;11603;44.910;8.630;2023-03-25T08:33:51;100342.50;;;15.82;100.00
22872;BME280;11603;44.910;8.630;2023-03-25T08:36:17;100339.72;;;15.93;100.00
22872;BME280;11603;44.910;8.630;2023-03-25T08:38:48;100333.09;;;16.07;100.00
22872;BME280;11603;44.910;8.630;2023-03-25T08:41:14;100332.19;;;16.27;100.00
22872;BME280;11603;44.910;8.630;2023-03-25T08:43:43;100332.25;;;16.56;100.00
22872;BME280;11603;44.910;8.630;2023-03-25T08:46:08;100330.16;;;16.69;100.00
22872;BME280;11603;44.910;8.630;2023-03-25T08:48:34;100333.13;;;16.85;100.00
22872;BME280;11603;44.910;8.630;2023-03-25T08:50:59;100325.31;;;17.02;100.00
22872;BME280;11603;44.910;8.630;2023-03-25T08:53:25;100328.19;;;17.00;100.00
22872;BME280;11603;44.910;8.630;2023-03-25T08:55:53;100325.75;;;17.16;100.00
22872;BME280;11603;44.910;8.630;2023-03-25T08:58:19;100323.75;;;17.38;97.66
22872;BME280;11603;44.910;8.630;2023-03-25T09:00:45;100322.16;;;17.35;74.00
22872;BME280;11603;44.910;8.630;2023-03-25T09:03:11;100312.19;;;17.45;67.60
22872;BME280;11603;44.910;8.630;2023-03-25T09:05:37;100322.56;;;17.69;68.83
22872;BME280;11603;44.910;8.630;2023-03-25T09:08:03;100330.16;;;17.93;68.08
22872;BME280;11603;44.910;8.630;2023-03-25T09:10:29;100329.09;;;18.03;64.74
22872;BME280;11603;44.910;8.630;2023-03-25T09:12:55;100330.63;;;18.15;60.76
22872;BME280;11603;44.910;8.630;2023-03-25T09:15:20;100325.34;;;18.14;59.83
22872;BME280;11603;44.910;8.630;2023-03-25T09:17:46;100324.25;;;18.34;57.72
22872;BME280;11603;44.910;8.630;2023-03-25T09:20:12;100312.75;;;18.50;56.05
22872;BME280;11603;44.910;8.630;2023-03-25T09:22:38;100320.81;;;18.59;52.95
22872;BME280;11603;44.910;8.630;2023-03-25T09:25:04;100316.66;;;18.65;52.89
22872;BME280;11603;44.910;8.630;2023-03-25T09:27:31;100313.47;;;18.70;52.51
22872;BME280;11603;44.910;8.630;2023-03-25T09:29:57;100314.81;;;18.66;51.31
22872;BME280;11603;44.910;8.630;2023-03-25T09:32:23;100308.63;;;18.73;51.50
22872;BME280;11603;44.910;8.630;2023-03-25T09:34:48;100299.38;;;19.01;51.38
22872;BME280;11603;44.910;8.630;2023-03-25T09:37:14;100293.06;;;18.93;50.48
22872;BME280;11603;44.910;8.630;2023-03-25T09:39:40;100292.66;;;18.88;50.72
22872;BME280;11603;44.910;8.630;2023-03-25T09:45:30;100298.13;;;19.14;49.61
22872;BME280;11603;44.910;8.630;2023-03-25T09:48:02;100297.44;;;19.12;50.09
22872;BME280;11603;44.910;8.630;2023-03-25T09:50:29;100298.19;;;19.22;50.08
22872;BME280;11603;44.910;8.630;2023-03-25T09:53:05;100285.66;;;19.21;50.06
22872;BME280;11603;44.910;8.630;2023-03-25T09:55:35;100295.28;;;19.41;50.66
22872;BME280;11603;44.910;8.630;2023-03-25T10:01:16;100283.50;;;19.76;48.85
22872;BME280;11603;44.910;8.630;2023-03-25T10:03:54;100291.75;;;19.66;48.59
22872;BME280;11603;44.910;8.630;2023-03-25T10:06:21;100286.91;;;19.78;47.94
22872;BME280;11603;44.910;8.630;2023-03-25T10:14:09;100273.28;;;20.12;46.04
22872;BME280;11603;44.910;8.630;2023-03-25T10:16:43;100269.47;;;20.30;46.58
22872;BME280;11603;44.910;8.630;2023-03-25T10:22:02;100261.56;;;20.45;44.42
22872;BME280;11603;44.910;8.630;2023-03-25T10:24:38;100262.78;;;20.67;43.97
22872;BME280;11603;44.910;8.630;2023-03-25T10:27:16;100257.84;;;20.95;42.52
22872;BME280;11603;44.910;8.630;2023-03-25T10:30:02;100256.16;;;20.94;41.07
22872;BME280;11603;44.910;8.630;2023-03-25T10:32:48;100249.34;;;21.06;40.96
22872;BME280;11603;44.910;8.630;2023-03-25T10:35:21;100244.63;;;21.16;39.34
22872;BME280;11603;44.910;8.630;2023-03-25T10:37:50;100241.56;;;21.03;38.43
22872;BME280;11603;44.910;8.630;2023-03-25T10:40:30;100239.84;;;21.26;37.53
22872;BME280;11603;44.910;8.630;2023-03-25T10:45:28;100236.03;;;21.60;36.44
22872;BME280;11603;44.910;8.630;2023-03-25T10:48:03;100235.06;;;21.91;35.10
22872;BME280;11603;44.910;8.630;2023-03-25T10:50:30;100231.78;;;22.04;33.95
22872;BME280;11603;44.910;8.630;2023-03-25T10:52:55;100219.03;;;22.05;33.00
22872;BME280;11603;44.910;8.630;2023-03-25T10:55:24;100222.34;;;22.23;33.62
22872;BME280;11603;44.910;8.630;2023-03-25T10:57:52;100217.44;;;22.41;33.58
22872;BME280;11603;44.910;8.630;2023-03-25T11:00:19;100215.50;;;22.27;33.86
22872;BME280;11603;44.910;8.630;2023-03-25T11:02:48;100207.78;;;22.30;32.90
22872;BME280;11603;44.910;8.630;2023-03-25T11:05:22;100209.25;;;22.41;32.15
22872;BME280;11603;44.910;8.630;2023-03-25T11:08:01;100211.38;;;22.31;32.30
22872;BME280;11603;44.910;8.630;2023-03-25T11:10:30;100195.94;;;22.46;32.67
22872;BME280;11603;44.910;8.630;2023-03-25T11:12:57;100206.41;;;22.57;31.77
22872;BME280;11603;44.910;8.630;2023-03-25T11:15:35;100195.78;;;22.70;31.17
22872;BME280;11603;44.910;8.630;2023-03-25T11:18:10;100193.47;;;22.82;30.61
22872;BME280;11603;44.910;8.630;2023-03-25T11:20:38;100194.72;;;22.94;30.33
22872;BME280;11603;44.910;8.630;2023-03-25T11:23:29;100187.69;;;23.00;29.94
22872;BME280;11603;44.910;8.630;2023-03-25T11:26:01;100188.81;;;23.05;28.52
22872;BME280;11603;44.910;8.630;2023-03-25T11:28:40;100180.38;;;22.77;27.73
22872;BME280;11603;44.910;8.630;2023-03-25T11:33:46;100190.13;;;23.09;26.57
22872;BME280;11603;44.910;8.630;2023-03-25T11:36:27;100187.34;;;23.17;26.73
22872;BME280;11603;44.910;8.630;2023-03-25T11:39:05;100180.88;;;23.33;26.50
22872;BME280;11603;44.910;8.630;2023-03-25T11:41:34;100173.81;;;23.68;26.50
22872;BME280;11603;44.910;8.630;2023-03-25T11:44:03;100177.03;;;23.57;26.34
22872;BME280;11603;44.910;8.630;2023-03-25T11:46:30;100177.69;;;23.59;25.61
22872;BME280;11603;44.910;8.630;2023-03-25T11:49:07;100168.19;;;23.55;25.57
22872;BME280;11603;44.910;8.630;2023-03-25T11:51:34;100166.56;;;23.75;25.36
22872;BME280;11603;44.910;8.630;2023-03-25T11:54:02;100164.97;;;23.81;25.66
22872;BME280;11603;44.910;8.630;2023-03-25T11:56:33;100150.28;;;24.03;25.46
22872;BME280;11603;44.910;8.630;2023-03-25T11:59:00;100146.19;;;24.14;25.84
22872;BME280;11603;44.910;8.630;2023-03-25T12:01:40;100143.88;;;24.11;24.87
22872;BME280;11603;44.910;8.630;2023-03-25T12:04:16;100140.97;;;23.97;25.00
22872;BME280;11603;44.910;8.630;2023-03-25T12:07:05;100141.88;;;23.83;25.37
22872;BME280;11603;44.910;8.630;2023-03-25T12:09:33;100141.50;;;24.07;25.24
22872;BME280;11603;44.910;8.630;2023-03-25T12:15:13;100125.75;;;24.24;25.00
22872;BME280;11603;44.910;8.630;2023-03-25T12:18:04;100110.50;;;24.15;24.85
22872;BME280;11603;44.910;8.630;2023-03-25T12:23:59;100107.06;;;23.92;25.40
22872;BME280;11603;44.910;8.630;2023-03-25T12:29:40;100086.88;;;24.50;25.80
22872;BME280;11603;44.910;8.630;2023-03-25T12:32:22;100083.25;;;24.71;24.83
22872;BME280;11603;44.910;8.630;2023-03-25T12:37:38;100094.94;;;24.58;25.27
22872;BME280;11603;44.910;8.630;2023-03-25T12:40:28;100092.81;;;24.54;25.09
22872;BME280;11603;44.910;8.630;2023-03-25T12:43:04;100102.31;;;24.58;25.88
22872;BME280;11603;44.910;8.630;2023-03-25T12:51:35;100082.06;;;24.31;26.77
22872;BME280;11603;44.910;8.630;2023-03-25T13:24:16;100050.84;;;24.68;24.70
22872;BME280;11603;44.910;8.630;2023-03-25T13:26:44;100045.72;;;24.86;25.00
22872;BME280;11603;44.910;8.630;2023-03-25T13:29:36;100039.44;;;24.92;24.08
22872;BME280;11603;44.910;8.630;2023-03-25T13:32:37;100043.88;;;24.93;25.36
22872;BME280;11603;44.910;8.630;2023-03-25T13:38:02;100025.41;;;25.02;24.52
22872;BME280;11603;44.910;8.630;2023-03-25T13:40:44;100038.25;;;25.01;25.13
22872;BME280;11603;44.910;8.630;2023-03-25T13:46:12;100026.69;;;25.06;25.41
22872;BME280;11603;44.910;8.630;2023-03-25T13:49:03;100028.66;;;25.25;25.02
22872;BME280;11603;44.910;8.630;2023-03-25T13:51:31;100012.66;;;25.28;24.00
22872;BME280;11603;44.910;8.630;2023-03-25T14:00:01;100005.50;;;25.21;24.19
22872;BME280;11603;44.910;8.630;2023-03-25T14:11:35;100004.06;;;25.31;24.73
22872;BME280;11603;44.910;8.630;2023-03-25T14:14:06;100001.47;;;25.64;27.64
22872;BME280;11603;44.910;8.630;2023-03-25T14:16:39;99995.03;;;25.44;24.28
22872;BME280;11603;44.910;8.630;2023-03-25T14:19:11;100000.09;;;25.41;25.77
22872;BME280;11603;44.910;8.630;2023-03-25T14:27:47;99987.56;;;25.18;23.70
22872;BME280;11603;44.910;8.630;2023-03-25T14:30:27;99981.63;;;25.08;26.45
22872;BME280;11603;44.910;8.630;2023-03-25T14:32:59;99975.75;;;25.05;25.21
22872;BME280;11603;44.910;8.630;2023-03-25T14:35:45;99975.69;;;24.98;24.60
22872;BME280;11603;44.910;8.630;2023-03-25T14:40:51;99970.88;;;25.00;23.59
22872;BME280;11603;44.910;8.630;2023-03-25T14:43:24;99982.06;;;25.05;23.61
22872;BME280;11603;44.910;8.630;2023-03-25T14:48:36;99970.25;;;25.05;23.33
22872;BME280;11603;44.910;8.630;2023-03-25T14:59:24;99966.44;;;24.99;24.39
22872;BME280;11603;44.910;8.630;2023-03-25T15:01:52;99968.75;;;25.02;23.60
22872;BME280;11603;44.910;8.630;2023-03-25T15:04:35;99969.84;;;25.08;24.84
22872;BME280;11603;44.910;8.630;2023-03-25T15:07:08;99964.19;;;25.09;23.18
22872;BME280;11603;44.910;8.630;2023-03-25T15:09:50;99963.28;;;25.02;22.93
22872;BME280;11603;44.910;8.630;2023-03-25T15:12:42;99957.31;;;24.85;23.53
22872;BME280;11603;44.910;8.630;2023-03-25T15:19:02;99962.00;;;24.98;23.52
22872;BME280;11603;44.910;8.630;2023-03-25T15:31:26;99966.38;;;24.86;24.19
22872;BME280;11603;44.910;8.630;2023-03-25T15:52:32;99965.38;;;24.66;24.67
22872;BME280;11603;44.910;8.630;2023-03-25T16:13:22;99986.94;;;24.20;24.91
22872;BME280;11603;44.910;8.630;2023-03-25T18:33:46;100107.78;;;17.97;77.42
22872;BME280;11603;44.910;8.630;2023-03-25T18:36:16;100097.75;;;17.90;78.79
22872;BME280;11603;44.910;8.630;2023-03-25T18:38:43;100115.34;;;17.76;80.97
22872;BME280;11603;44.910;8.630;2023-03-25T18:41:10;100114.88;;;17.63;81.41
22872;BME280;11603;44.910;8.630;2023-03-25T18:43:38;100110.53;;;17.70;80.93
22872;BME280;11603;44.910;8.630;2023-03-25T18:46:03;100105.91;;;17.62;79.76
22872;BME280;11603;44.910;8.630;2023-03-25T18:48:29;100109.59;;;17.61;74.65
22872;BME280;11603;44.910;8.630;2023-03-25T18:50:58;100104.47;;;17.58;73.30
22872;BME280;11603;44.910;8.630;2023-03-25T18:53:26;100098.94;;;17.60;69.37
22872;BME280;11603;44.910;8.630;2023-03-25T18:55:54;100093.66;;;17.58;67.09
22872;BME280;11603;44.910;8.630;2023-03-25T18:58:22;100091.53;;;17.62;65.96
22872;BME280;11603;44.910;8.630;2023-03-25T19:00:50;100097.78;;;17.62;64.52
22872;BME280;11603;44.910;8.630;2023-03-25T19:03:17;100096.22;;;17.60;61.88
22872;BME280;11603;44.910;8.630;2023-03-25T19:05:43;100088.81;;;17.62;60.41
22872;BME280;11603;44.910;8.630;2023-03-25T19:08:18;100089.50;;;17.64;59.62
22872;BME280;11603;44.910;8.630;2023-03-25T19:10:44;100094.09;;;17.63;58.56
22872;BME280;11603;44.910;8.630;2023-03-25T19:13:10;100096.47;;;17.66;56.97
22872;BME280;11603;44.910;8.630;2023-03-25T19:15:36;100088.88;;;17.70;56.48
22872;BME280;11603;44.910;8.630;2023-03-25T19:18:01;100094.63;;;17.67;56.57
22872;BME280;11603;44.910;8.630;2023-03-25T19:20:29;100102.88;;;17.65;56.39
22872;BME280;11603;44.910;8.630;2023-03-25T19:23:00;100108.78;;;17.51;56.45
22872;BME280;11603;44.910;8.630;2023-03-25T19:25:26;100111.88;;;17.56;56.13
22872;BME280;11603;44.910;8.630;2023-03-25T19:27:52;100109.84;;;17.41;66.16
22872;BME280;11603;44.910;8.630;2023-03-25T19:30:19;100120.34;;;17.16;75.17
22872;BME280;11603;44.910;8.630;2023-03-25T19:32:47;100117.16;;;16.93;84.27